Time;durP1;ratioP1;P1;durP2;ratioP2;P2;SDS_P1;SDS_P2;PMS_P1;PMS_P2;Temp;Humidity;BMP_temperature;BMP_pressure;BME280_temperature;BME280_humidity;BME280_pressure;Samples;Min_cycle;Max_cycle;Signal;HPM_P1;HPM_P2
2022/12/30 00:02:07;;;;;;;5.10;2.90;;;8.50;99.90;;;;;;5250802;28;20174;-47
2022/12/30 00:04:37;;;;;;;7.93;2.70;;;8.30;99.90;;;;;;5264900;28;20183;-47
2022/12/30 00:07:08;;;;;;;1.77;1.67;;;8.30;99.90;;;;;;5260235;28;20186;-46
2022/12/30 00:09:39;;;;;;;6.03;1.93;;;8.30;99.90;;;;;;5268547;28;20182;-49
2022/12/30 00:35:20;;;;;;;5.43;1.80;;;8.80;99.90;;;;;;5262420;28;20466;-49
2022/12/30 00:37:50;;;;;;;2.90;2.17;;;8.80;99.90;;;;;;5274300;28;20456;-47
2022/12/30 00:40:21;;;;;;;2.80;1.90;;;8.80;99.90;;;;;;5257367;28;20955;-49
2022/12/30 00:43:10;;;;;;;7.30;1.97;;;8.80;99.90;;;;;;5261359;28;20175;-47
2022/12/30 00:45:42;;;;;;;4.40;1.60;;;8.70;99.90;;;;;;5261428;28;20256;-48
2022/12/30 00:56:44;;;;;;;4.00;1.30;;;8.50;99.90;;;;;;5260694;28;20466;-47
2022/12/30 00:59:15;;;;;;;4.43;1.60;;;8.40;99.90;;;;;;5268433;28;20463;-47
2022/12/30 01:01:46;;;;;;;6.77;1.53;;;8.40;99.90;;;;;;5259267;28;20488;-48
2022/12/30 01:04:16;;;;;;;6.60;1.43;;;8.30;99.90;;;;;;5265427;28;21823;-47
2022/12/30 01:06:47;;;;;;;3.87;1.57;;;8.30;99.90;;;;;;5266343;28;20245;-52
2022/12/30 01:09:18;;;;;;;5.47;1.43;;;8.20;99.90;;;;;;5274048;28;20205;-49
2022/12/30 01:12:07;;;;;;;5.80;1.30;;;8.20;99.90;;;;;;5263928;28;20179;-47
2022/12/30 01:14:42;;;;;;;7.10;1.40;;;8.10;99.90;;;;;;5259277;28;20205;-47
2022/12/30 01:17:19;;;;;;;2.53;1.77;;;8.10;99.90;;;;;;5263518;28;20798;-46
2022/12/30 01:19:50;;;;;;;3.43;1.30;;;8.10;99.90;;;;;;5259806;28;20777;-47
2022/12/30 01:22:20;;;;;;;2.80;1.37;;;8.00;99.90;;;;;;5257256;28;20459;-47
2022/12/30 01:24:51;;;;;;;6.20;1.00;;;8.00;99.90;;;;;;5264108;28;20288;-47
2022/12/30 01:27:22;;;;;;;5.83;1.17;;;7.90;99.90;;;;;;5269723;28;20205;-48
2022/12/30 01:29:53;;;;;;;8.33;1.80;;;7.80;99.90;;;;;;5264188;28;20190;-47
2022/12/30 01:32:23;;;;;;;3.90;1.47;;;7.70;99.90;;;;;;5261693;28;20197;-50
2022/12/30 01:34:55;;;;;;;4.93;1.80;;;7.70;99.90;;;;;;5261992;28;20677;-47
2022/12/30 01:37:26;;;;;;;3.60;1.77;;;7.60;99.90;;;;;;5263949;28;20209;-49
2022/12/30 01:39:56;;;;;;;1.93;1.47;;;7.70;99.90;;;;;;5259707;28;20455;-50
2022/12/30 01:42:30;;;;;;;5.07;1.60;;;7.80;99.90;;;;;;5264562;28;20674;-48
2022/12/30 01:45:21;;;;;;;2.17;1.30;;;7.70;99.90;;;;;;5253435;28;20544;-53
2022/12/30 01:48:06;;;;;;;10.90;2.07;;;7.70;99.90;;;;;;5263360;28;20560;-48
2022/12/30 01:51:13;;;;;;;18.70;1.50;;;7.70;99.90;;;;;;5258622;28;20513;-49
2022/12/30 01:53:48;;;;;;;2.30;1.00;;;7.70;99.90;;;;;;5253559;28;20449;-48
2022/12/30 01:56:37;;;;;;;5.93;1.33;;;7.60;99.90;;;;;;5267645;28;20435;-49
2022/12/30 01:59:17;;;;;;;4.40;1.30;;;7.60;99.90;;;;;;5266526;28;20463;-48
2022/12/30 02:01:49;;;;;;;2.83;1.20;;;7.60;99.90;;;;;;5264373;28;20528;-51
2022/12/30 02:04:21;;;;;;;2.40;0.90;;;7.60;99.90;;;;;;5253160;28;20439;-49
2022/12/30 02:07:01;;;;;;;5.93;1.40;;;7.60;99.90;;;;;;5253669;28;20440;-49
2022/12/30 02:09:33;;;;;;;2.30;1.40;;;7.60;99.90;;;;;;5261891;28;20443;-49
2022/12/30 02:12:05;;;;;;;5.27;2.00;;;7.60;99.90;;;;;;5253434;28;20450;-50
2022/12/30 02:14:39;;;;;;;2.53;1.30;;;7.40;99.90;;;;;;5263096;28;20478;-50
2022/12/30 02:17:33;;;;;;;7.50;1.90;;;7.50;99.90;;;;;;5269285;28;21002;-49
2022/12/30 02:20:28;;;;;;;10.53;1.67;;;7.40;99.90;;;;;;5259878;28;20521;-49
2022/12/30 02:23:14;;;;;;;2.53;1.40;;;7.40;99.90;;;;;;5256857;28;20490;-50
2022/12/30 02:26:05;;;;;;;3.03;1.50;;;7.50;99.90;;;;;;5259482;28;20472;-49
2022/12/30 02:29:04;;;;;;;3.20;2.10;;;7.60;99.90;;;;;;5258994;28;20914;-48
2022/12/30 02:31:50;;;;;;;3.13;1.70;;;7.70;99.90;;;;;;5259526;28;20434;-49
2022/12/30 02:35:04;;;;;;;9.90;2.20;;;7.70;99.90;;;;;;5266274;28;20462;-49
2022/12/30 02:38:18;;;;;;;1.90;1.00;;;7.80;99.90;;;;;;5260172;28;20443;-49
2022/12/30 02:44:38;;;;;;;2.33;2.17;;;7.90;99.90;;;;;;5250869;28;21006;-50
2022/12/30 02:47:28;;;;;;;5.90;1.63;;;7.90;99.90;;;;;;5262684;28;21002;-49
2022/12/30 02:53:03;;;;;;;3.43;1.30;;;7.70;99.90;;;;;;5255787;28;20459;-50
2022/12/30 02:55:34;;;;;;;5.57;2.37;;;7.70;99.90;;;;;;5251700;28;20455;-50
2022/12/30 02:58:04;;;;;;;1.60;1.50;;;7.70;99.90;;;;;;5270374;28;20456;-49
2022/12/30 03:04:15;;;;;;;1.83;0.90;;;7.80;99.90;;;;;;5265868;28;20208;-51
2022/12/30 03:06:48;;;;;;;8.90;1.90;;;7.90;99.90;;;;;;5264046;28;20428;-51
2022/12/30 03:09:25;;;;;;;6.03;1.70;;;7.90;99.90;;;;;;5269955;28;20454;-50
2022/12/30 03:12:11;;;;;;;18.43;1.80;;;7.90;99.90;;;;;;5260279;28;20493;-50
2022/12/30 03:15:03;;;;;;;7.60;1.37;;;7.70;99.90;;;;;;5253027;28;20468;-49
2022/12/30 03:17:37;;;;;;;8.80;1.50;;;7.60;99.90;;;;;;5246599;28;20538;-49
2022/12/30 03:20:14;;;;;;;6.27;1.30;;;7.40;99.90;;;;;;5263754;28;20515;-49
2022/12/30 03:28:28;;;;;;;3.00;1.90;;;7.30;99.90;;;;;;5258669;28;20507;-51
2022/12/30 03:31:05;;;;;;;11.93;1.23;;;7.30;99.90;;;;;;5265967;28;20446;-48
2022/12/30 03:33:37;;;;;;;3.43;1.13;;;7.20;99.90;;;;;;5263675;28;20804;-48
2022/12/30 03:36:20;;;;;;;10.87;1.50;;;7.30;99.90;;;;;;5255064;28;20798;-50
2022/12/30 03:39:08;;;;;;;5.40;1.60;;;7.10;99.90;;;;;;5266775;28;20909;-49
2022/12/30 03:41:41;;;;;;;6.90;1.53;;;7.10;99.90;;;;;;5270871;28;20523;-49
2022/12/30 03:44:12;;;;;;;5.90;1.30;;;7.10;99.90;;;;;;5259278;28;20463;-48
2022/12/30 03:46:44;;;;;;;7.80;1.90;;;7.00;99.90;;;;;;5263451;28;20435;-48
2022/12/30 03:49:16;;;;;;;5.20;1.50;;;7.00;99.90;;;;;;5261485;28;20282;-48
2022/12/30 03:51:47;;;;;;;5.80;1.57;;;7.00;99.90;;;;;;5264880;28;20439;-50
2022/12/30 03:54:18;;;;;;;6.73;2.20;;;7.00;99.90;;;;;;5267514;28;20466;-50
2022/12/30 03:56:48;;;;;;;4.30;1.30;;;6.90;99.90;;;;;;5265322;28;20189;-48
2022/12/30 03:59:19;;;;;;;4.40;2.10;;;6.90;99.90;;;;;;5257819;28;20214;-49
2022/12/30 04:01:50;;;;;;;6.40;1.53;;;7.00;99.90;;;;;;5263581;28;20177;-48
2022/12/30 04:04:20;;;;;;;7.93;1.67;;;7.10;99.90;;;;;;5259882;28;20983;-48
2022/12/30 04:06:51;;;;;;;4.23;1.30;;;7.20;99.90;;;;;;5268333;28;20181;-48
2022/12/30 04:09:22;;;;;;;9.93;1.90;;;7.10;99.90;;;;;;5263191;28;20197;-49
2022/12/30 04:11:53;;;;;;;5.17;1.63;;;7.20;99.90;;;;;;5259527;28;20188;-49
2022/12/30 04:14:23;;;;;;;4.23;2.00;;;7.30;99.90;;;;;;5260412;28;20197;-49
2022/12/30 04:16:54;;;;;;;6.70;2.10;;;7.40;99.90;;;;;;5262277;28;20184;-48
2022/12/30 04:19:25;;;;;;;9.20;1.73;;;7.40;99.90;;;;;;5258514;28;20209;-49
2022/12/30 04:21:55;;;;;;;3.27;1.70;;;7.30;99.90;;;;;;5263917;28;20260;-50
2022/12/30 04:24:27;;;;;;;8.77;1.77;;;7.20;99.90;;;;;;5265273;28;20185;-49
2022/12/30 04:26:57;;;;;;;4.33;1.50;;;7.00;99.90;;;;;;5262221;28;20230;-50
2022/12/30 04:29:28;;;;;;;8.53;1.90;;;6.90;99.90;;;;;;5260797;28;20423;-48
2022/12/30 04:31:59;;;;;;;3.20;1.73;;;7.00;99.90;;;;;;5263718;28;20330;-49
2022/12/30 04:34:29;;;;;;;13.13;2.00;;;6.90;99.90;;;;;;5260019;28;20217;-49
2022/12/30 04:37:00;;;;;;;7.20;1.40;;;6.90;99.90;;;;;;5258000;28;20190;-49
2022/12/30 04:39:31;;;;;;;3.13;1.40;;;6.70;99.90;;;;;;5253016;28;20185;-48
2022/12/30 04:42:02;;;;;;;11.10;2.23;;;6.70;99.90;;;;;;5260636;28;20235;-50
2022/12/30 04:44:32;;;;;;;1.77;1.63;;;6.50;99.90;;;;;;5265177;28;20669;-49
2022/12/30 04:47:03;;;;;;;2.40;1.37;;;6.40;99.90;;;;;;5265117;28;20181;-50
2022/12/30 04:49:33;;;;;;;4.03;1.80;;;6.30;99.90;;;;;;5249171;28;20189;-48
2022/12/30 04:52:04;;;;;;;4.80;1.73;;;6.40;99.90;;;;;;5253950;28;20186;-49
2022/12/30 04:54:35;;;;;;;4.90;1.47;;;6.30;99.90;;;;;;5265093;28;20204;-49
2022/12/30 04:57:05;;;;;;;7.10;2.07;;;6.40;99.90;;;;;;5262572;28;20217;-48
2022/12/30 04:59:36;;;;;;;4.47;1.60;;;6.40;99.90;;;;;;5258230;28;20194;-49
2022/12/30 05:02:07;;;;;;;3.20;1.53;;;6.50;99.90;;;;;;5256610;28;20231;-49
2022/12/30 05:04:38;;;;;;;8.53;2.20;;;6.50;99.90;;;;;;5262824;28;20193;-48
2022/12/30 05:07:09;;;;;;;8.03;1.23;;;6.60;99.90;;;;;;5266152;28;20270;-48
2022/12/30 05:09:40;;;;;;;5.27;1.67;;;6.50;99.90;;;;;;5255198;28;20244;-50
2022/12/30 05:12:11;;;;;;;5.30;2.00;;;6.40;99.90;;;;;;5243998;28;20436;-50
2022/12/30 05:14:41;;;;;;;5.43;1.50;;;6.30;99.90;;;;;;5258791;28;20204;-49
2022/12/30 05:17:12;;;;;;;2.97;1.77;;;6.30;99.90;;;;;;5256308;28;20192;-49
2022/12/30 05:19:43;;;;;;;2.23;1.50;;;6.20;99.90;;;;;;5257981;28;20187;-48
2022/12/30 05:22:13;;;;;;;2.10;1.63;;;6.20;99.90;;;;;;5261575;28;20185;-48
2022/12/30 05:27:33;;;;;;;4.37;2.70;;;6.00;99.90;;;;;;5262736;28;20374;-48
2022/12/30 05:30:04;;;;;;;8.50;2.40;;;5.90;99.90;;;;;;5263174;28;20523;-49
2022/12/30 05:32:35;;;;;;;4.43;1.63;;;5.90;99.90;;;;;;5267196;28;20190;-48
2022/12/30 05:35:06;;;;;;;11.10;1.70;;;5.90;99.90;;;;;;5257498;28;20820;-48
2022/12/30 05:37:37;;;;;;;2.57;1.50;;;5.80;99.90;;;;;;5264477;28;20706;-49
2022/12/30 05:40:09;;;;;;;7.50;1.50;;;5.80;99.90;;;;;;5264666;28;20557;-50
2022/12/30 05:42:39;;;;;;;8.50;2.00;;;5.70;99.90;;;;;;5250395;28;20657;-48
2022/12/30 05:45:10;;;;;;;6.27;1.40;;;5.70;99.90;;;;;;5256787;28;20439;-48
2022/12/30 05:47:41;;;;;;;2.10;1.40;;;5.70;99.90;;;;;;5262544;28;20201;-50
2022/12/30 05:50:12;;;;;;;8.27;1.50;;;5.70;99.90;;;;;;5260732;28;20438;-49
2022/12/30 05:52:43;;;;;;;13.73;2.17;;;5.60;99.90;;;;;;5261645;28;22054;-50
2022/12/30 05:55:14;;;;;;;4.93;1.40;;;5.50;99.90;;;;;;5262049;28;20467;-48
2022/12/30 05:57:44;;;;;;;4.97;1.77;;;5.50;99.90;;;;;;5264892;28;20211;-49
2022/12/30 06:00:15;;;;;;;6.67;1.47;;;5.50;99.90;;;;;;5252139;28;20228;-50
2022/12/30 06:02:46;;;;;;;6.57;1.87;;;5.50;99.90;;;;;;5249287;28;20185;-50
2022/12/30 06:05:16;;;;;;;3.80;1.93;;;5.40;99.90;;;;;;5264106;28;20661;-49
2022/12/30 06:07:47;;;;;;;6.80;1.90;;;5.40;99.90;;;;;;5257218;28;20302;-50
2022/12/30 06:10:18;;;;;;;1.30;1.20;;;5.30;99.90;;;;;;5260199;28;20191;-49
2022/12/30 06:12:49;;;;;;;3.07;1.50;;;5.30;99.90;;;;;;5263419;28;20186;-49
2022/12/30 06:15:20;;;;;;;3.57;1.33;;;5.20;99.90;;;;;;5264580;28;20470;-49
2022/12/30 06:17:50;;;;;;;3.03;1.10;;;5.10;99.90;;;;;;5261574;28;20198;-49
2022/12/30 06:20:21;;;;;;;8.27;1.97;;;5.10;99.90;;;;;;5259527;28;20196;-49
2022/12/30 06:22:52;;;;;;;1.70;1.40;;;5.20;99.90;;;;;;5253344;28;20177;-48
2022/12/30 06:25:22;;;;;;;1.60;1.33;;;5.10;99.90;;;;;;5259956;28;20559;-49
2022/12/30 06:27:53;;;;;;;10.30;1.60;;;5.10;99.90;;;;;;5262492;28;20746;-50
2022/12/30 06:30:24;;;;;;;4.67;1.53;;;5.00;99.90;;;;;;5266506;28;20203;-49
2022/12/30 06:32:55;;;;;;;10.37;1.73;;;5.00;99.90;;;;;;5266707;28;20677;-48
2022/12/30 06:35:26;;;;;;;7.03;1.53;;;5.10;99.90;;;;;;5258169;28;20608;-49
2022/12/30 06:37:56;;;;;;;3.20;1.70;;;5.10;99.90;;;;;;5263746;28;20467;-48
2022/12/30 06:40:27;;;;;;;6.90;2.43;;;5.10;99.90;;;;;;5258899;28;20446;-50
2022/12/30 06:42:58;;;;;;;6.93;1.40;;;5.10;99.90;;;;;;5260057;28;20177;-49
2022/12/30 06:45:29;;;;;;;5.30;1.67;;;5.10;99.90;;;;;;5265073;28;20840;-49
2022/12/30 06:48:00;;;;;;;5.77;1.77;;;5.00;99.90;;;;;;5263912;28;20205;-49
2022/12/30 06:50:31;;;;;;;6.00;1.73;;;5.00;99.90;;;;;;5260497;28;20558;-49
2022/12/30 06:53:03;;;;;;;2.97;1.80;;;5.00;99.90;;;;;;5264935;28;20185;-48
2022/12/30 06:55:34;;;;;;;2.53;2.03;;;4.90;99.90;;;;;;5265873;28;20501;-48
2022/12/30 06:58:05;;;;;;;13.27;2.03;;;4.90;99.90;;;;;;5265179;28;20859;-50
2022/12/30 07:00:36;;;;;;;9.83;1.80;;;4.90;99.90;;;;;;5258678;28;20776;-49
2022/12/30 07:03:08;;;;;;;6.40;1.97;;;4.80;99.90;;;;;;5260779;28;20443;-48
2022/12/30 07:05:39;;;;;;;5.20;1.67;;;4.90;99.90;;;;;;5267403;28;20215;-49
2022/12/30 07:08:09;;;;;;;9.13;2.20;;;4.80;99.90;;;;;;5262937;28;20462;-50
2022/12/30 07:10:40;;;;;;;12.97;1.73;;;4.80;99.90;;;;;;5261400;28;20282;-50
2022/12/30 07:13:13;;;;;;;5.83;1.93;;;4.80;99.90;;;;;;5264512;28;20554;-49
2022/12/30 07:15:44;;;;;;;3.23;1.57;;;4.80;99.90;;;;;;5260357;28;20205;-49
2022/12/30 07:18:14;;;;;;;6.40;2.50;;;4.70;99.90;;;;;;5264773;28;20486;-49
2022/12/30 07:20:45;;;;;;;4.23;1.93;;;4.60;99.90;;;;;;5260081;28;20596;-50
2022/12/30 07:23:16;;;;;;;4.00;2.40;;;4.60;99.90;;;;;;5259476;28;20769;-50
2022/12/30 07:25:47;;;;;;;6.17;1.90;;;4.70;99.90;;;;;;5265908;28;20303;-48
2022/12/30 07:28:17;;;;;;;19.87;2.33;;;4.70;99.90;;;;;;5261576;28;20561;-49
2022/12/30 07:30:48;;;;;;;4.53;2.40;;;4.70;99.90;;;;;;5246948;28;20532;-51
2022/12/30 07:33:19;;;;;;;6.17;2.20;;;4.70;99.90;;;;;;5246059;28;20267;-49
2022/12/30 07:35:49;;;;;;;3.23;1.47;;;4.70;99.90;;;;;;5263966;28;20216;-48
2022/12/30 07:38:20;;;;;;;11.63;2.67;;;4.70;99.90;;;;;;5259913;28;20220;-48
2022/12/30 07:40:51;;;;;;;5.77;2.83;;;5.00;99.90;;;;;;5259955;28;20190;-48
2022/12/30 07:43:21;;;;;;;8.10;2.83;;;5.10;99.90;;;;;;5263054;28;20192;-49
2022/12/30 07:45:52;;;;;;;4.23;2.60;;;5.10;99.90;;;;;;5265967;28;20689;-48
2022/12/30 07:48:23;;;;;;;2.30;2.00;;;5.00;99.90;;;;;;5262586;28;20264;-49
2022/12/30 07:50:54;;;;;;;4.43;1.47;;;5.00;99.90;;;;;;5265643;28;20185;-48
2022/12/30 07:53:24;;;;;;;6.47;2.17;;;4.90;99.90;;;;;;5266363;28;20181;-50
2022/12/30 07:55:55;;;;;;;10.43;2.33;;;5.00;99.90;;;;;;5263499;28;20204;-50
2022/12/30 07:58:26;;;;;;;5.70;1.93;;;5.00;99.90;;;;;;5263407;28;20208;-51
2022/12/30 08:00:57;;;;;;;5.03;1.90;;;5.00;99.90;;;;;;5263956;28;20272;-50
2022/12/30 08:03:27;;;;;;;9.30;1.97;;;5.10;99.90;;;;;;5246241;28;20634;-51
2022/12/30 08:06:07;;;;;;;8.63;2.17;;;5.20;99.90;;;;;;5264278;28;20566;-51
2022/12/30 08:08:38;;;;;;;6.43;2.67;;;5.20;99.90;;;;;;5269159;28;20211;-52
2022/12/30 08:11:10;;;;;;;1.97;1.87;;;5.30;99.90;;;;;;5261907;28;20443;-51
2022/12/30 08:13:42;;;;;;;3.57;1.60;;;5.20;99.90;;;;;;5265140;28;20444;-50
2022/12/30 08:16:15;;;;;;;4.77;1.63;;;5.10;99.90;;;;;;5263449;28;20501;-52
2022/12/30 08:18:46;;;;;;;5.17;2.23;;;5.20;99.90;;;;;;5264473;28;20543;-52
2022/12/30 08:21:18;;;;;;;11.00;3.00;;;5.10;99.90;;;;;;5274158;28;20917;-50
2022/12/30 08:23:48;;;;;;;2.23;1.23;;;5.20;99.90;;;;;;5261321;28;20188;-50
2022/12/30 08:26:21;;;;;;;4.70;1.83;;;5.20;99.90;;;;;;5249454;28;20434;-49
2022/12/30 08:28:52;;;;;;;2.83;1.90;;;5.20;99.90;;;;;;5254261;28;20297;-47
2022/12/30 08:31:25;;;;;;;3.17;2.23;;;5.30;99.90;;;;;;5246028;28;20476;-51
2022/12/30 08:33:57;;;;;;;11.70;2.33;;;5.30;99.90;;;;;;5266903;28;20973;-50
2022/12/30 08:36:28;;;;;;;2.63;1.60;;;5.30;99.90;;;;;;5265920;28;20466;-52
2022/12/30 08:39:02;;;;;;;12.80;2.73;;;5.40;99.90;;;;;;5258188;28;20468;-51
2022/12/30 08:41:38;;;;;;;15.13;4.30;;;5.40;99.90;;;;;;5266466;28;20504;-49
2022/12/30 08:44:09;;;;;;;7.20;2.47;;;5.50;99.90;;;;;;5266618;28;20423;-52
2022/12/30 08:46:40;;;;;;;5.30;2.33;;;5.50;99.90;;;;;;5266276;28;20438;-51
2022/12/30 08:49:11;;;;;;;4.73;1.83;;;5.60;99.90;;;;;;5265404;28;20492;-50
2022/12/30 08:51:42;;;;;;;13.73;2.20;;;5.60;99.90;;;;;;5263688;28;20427;-49
2022/12/30 08:54:14;;;;;;;4.40;2.67;;;5.70;99.90;;;;;;5263744;28;20514;-51
2022/12/30 08:56:48;;;;;;;8.03;2.63;;;5.70;99.90;;;;;;5266427;28;20443;-50
2022/12/30 08:59:19;;;;;;;11.70;2.57;;;5.70;99.90;;;;;;5264378;28;20472;-49
2022/12/30 09:01:49;;;;;;;10.43;2.20;;;5.90;99.90;;;;;;5263432;28;20481;-52
2022/12/30 09:04:20;;;;;;;3.50;2.37;;;5.80;99.90;;;;;;5267348;28;20186;-52
2022/12/30 09:06:51;;;;;;;16.23;3.20;;;5.90;99.90;;;;;;5262360;28;20552;-51
2022/12/30 09:09:21;;;;;;;2.67;2.10;;;6.10;99.90;;;;;;5264431;28;20220;-51
2022/12/30 09:11:52;;;;;;;12.17;2.57;;;6.00;99.90;;;;;;5262391;28;20174;-53
2022/12/30 09:14:23;;;;;;;8.30;4.90;;;6.20;99.90;;;;;;5266787;28;20213;-50
2022/12/30 09:16:54;;;;;;;14.43;4.10;;;6.00;99.90;;;;;;5262634;28;20174;-50
2022/12/30 09:19:25;;;;;;;15.53;3.27;;;6.10;99.90;;;;;;5256976;28;20478;-51
2022/12/30 09:21:55;;;;;;;7.20;2.23;;;6.00;99.90;;;;;;5259441;28;20661;-51
2022/12/30 09:24:26;;;;;;;16.33;3.50;;;6.10;99.90;;;;;;5256177;28;20544;-49
2022/12/30 09:26:57;;;;;;;9.43;3.20;;;6.20;99.90;;;;;;5254802;28;20265;-49
2022/12/30 09:29:28;;;;;;;13.30;2.70;;;6.10;99.90;;;;;;5255414;28;20301;-51
2022/12/30 09:31:58;;;;;;;14.83;4.27;;;6.20;99.90;;;;;;5258204;28;20196;-51
2022/12/30 09:34:29;;;;;;;8.20;2.73;;;6.20;99.90;;;;;;5262803;28;20209;-51
2022/12/30 09:37:00;;;;;;;7.73;2.93;;;6.30;99.90;;;;;;5259523;28;20181;-52
2022/12/30 09:39:30;;;;;;;5.20;2.33;;;6.30;99.90;;;;;;5265610;28;20193;-50
2022/12/30 09:45:26;;;;;;;13.23;3.73;;;6.40;99.90;;;;;;5258375;28;20212;-51
2022/12/30 09:48:04;;;;;;;6.43;3.00;;;6.40;99.90;;;;;;5258772;28;20529;-51
2022/12/30 09:50:53;;;;;;;8.23;2.13;;;6.40;99.90;;;;;;5257793;28;20450;-51
2022/12/30 09:53:35;;;;;;;5.50;2.50;;;6.50;99.90;;;;;;5263500;28;20485;-50
2022/12/30 09:56:17;;;;;;;12.43;4.10;;;6.60;99.90;;;;;;5270748;27;20472;-50
2022/12/30 09:58:48;;;;;;;3.73;2.73;;;6.70;99.90;;;;;;5263615;28;20470;-49
2022/12/30 10:01:34;;;;;;;7.73;3.30;;;6.60;99.90;;;;;;5279467;27;20436;-49
2022/12/30 10:04:15;;;;;;;12.73;4.00;;;6.80;99.90;;;;;;5262106;28;20436;-51
2022/12/30 10:07:08;;;;;;;12.57;4.17;;;6.90;99.90;;;;;;5258743;28;20536;-50
2022/12/30 10:09:43;;;;;;;7.93;3.20;;;7.10;99.90;;;;;;5266366;28;20441;-50
2022/12/30 10:12:26;;;;;;;9.40;3.63;;;7.10;99.90;;;;;;5256704;28;20443;-48
2022/12/30 10:15:28;;;;;;;13.13;5.30;;;7.10;99.90;;;;;;5264601;28;20462;-50
2022/12/30 10:18:16;;;;;;;7.90;3.43;;;7.20;99.90;;;;;;5253960;28;20531;-49
2022/12/30 10:21:09;;;;;;;8.13;4.13;;;7.20;99.90;;;;;;5266903;28;20435;-51
2022/12/30 10:23:46;;;;;;;12.03;5.00;;;7.20;99.90;;;;;;5265849;28;20447;-52
2022/12/30 10:26:22;;;;;;;13.00;5.03;;;7.20;99.90;;;;;;5265380;28;20438;-52
2022/12/30 10:29:04;;;;;;;11.03;4.27;;;7.30;99.90;;;;;;5271992;28;20442;-52
2022/12/30 10:31:37;;;;;;;8.33;3.50;;;7.30;99.90;;;;;;5264256;28;20608;-50
2022/12/30 10:34:13;;;;;;;6.43;2.50;;;7.30;99.90;;;;;;5261016;28;20458;-50
2022/12/30 10:36:59;;;;;;;8.63;2.93;;;7.40;99.90;;;;;;5272065;28;20445;-50
2022/12/30 10:39:36;;;;;;;5.63;2.30;;;7.50;99.90;;;;;;5258305;28;20932;-50
2022/12/30 10:42:31;;;;;;;8.70;2.17;;;7.50;99.90;;;;;;5258571;28;20427;-51
2022/12/30 10:45:18;;;;;;;5.73;2.60;;;7.40;99.90;;;;;;5272382;28;20530;-51
2022/12/30 10:48:00;;;;;;;9.53;2.97;;;7.60;99.90;;;;;;5266619;28;20815;-51
2022/12/30 10:50:33;;;;;;;8.03;2.80;;;7.70;99.90;;;;;;5260677;28;20452;-51
2022/12/30 10:53:12;;;;;;;19.20;5.53;;;7.70;99.90;;;;;;5261251;28;20439;-50
2022/12/30 10:55:49;;;;;;;12.33;3.87;;;7.70;99.90;;;;;;5260137;28;21601;-51
2022/12/30 10:58:47;;;;;;;4.10;2.60;;;7.70;99.90;;;;;;5255931;28;21042;-51
2022/12/30 11:01:24;;;;;;;8.07;3.40;;;7.80;99.90;;;;;;5255151;28;20484;-52
2022/12/30 11:03:58;;;;;;;11.53;1.90;;;7.80;99.90;;;;;;5269830;28;20552;-51
2022/12/30 11:06:30;;;;;;;6.27;2.27;;;7.80;99.90;;;;;;5265575;28;20439;-51
2022/12/30 11:09:13;;;;;;;3.47;2.13;;;7.90;99.90;;;;;;5248140;28;20467;-51
2022/12/30 11:14:44;;;;;;;6.20;2.20;;;8.10;99.90;;;;;;5265332;28;20515;-49
2022/12/30 11:17:15;;;;;;;4.00;2.20;;;8.10;99.90;;;;;;5267290;28;20609;-51
2022/12/30 11:19:52;;;;;;;4.67;1.70;;;8.20;99.90;;;;;;5281979;28;20424;-51
2022/12/30 11:22:23;;;;;;;9.43;1.80;;;8.30;99.90;;;;;;5271464;28;20656;-51
2022/12/30 11:25:22;;;;;;;9.00;2.30;;;8.50;99.90;;;;;;5269598;28;20948;-50
2022/12/30 11:27:58;;;;;;;4.97;1.77;;;8.50;99.90;;;;;;5279752;27;20553;-51
2022/12/30 11:30:31;;;;;;;7.20;1.77;;;8.60;99.90;;;;;;5264037;28;20970;-53
2022/12/30 11:33:14;;;;;;;3.67;1.63;;;8.60;99.90;;;;;;5266834;28;20438;-52
2022/12/30 11:35:49;;;;;;;6.53;2.43;;;8.60;99.90;;;;;;5267961;28;20462;-52
2022/12/30 11:38:35;;;;;;;10.50;2.40;;;8.60;99.90;;;;;;5277480;28;20438;-51
2022/12/30 11:41:28;;;;;;;3.73;1.77;;;8.70;99.90;;;;;;5275721;28;20430;-52
2022/12/30 11:43:58;;;;;;;5.50;2.30;;;8.70;99.90;;;;;;5266408;28;20564;-51
2022/12/30 11:46:33;;;;;;;5.90;1.60;;;8.70;99.90;;;;;;5267372;28;20527;-51
2022/12/30 11:49:30;;;;;;;10.93;2.37;;;8.60;99.90;;;;;;5274399;28;20230;-49
2022/12/30 11:52:04;;;;;;;6.67;2.20;;;8.60;99.90;;;;;;5263406;28;21066;-49
2022/12/30 11:54:56;;;;;;;7.30;2.77;;;8.70;99.90;;;;;;5274358;28;20475;-50
2022/12/30 11:57:41;;;;;;;3.13;1.70;;;8.60;99.90;;;;;;5270166;28;20454;-51
2022/12/30 12:00:12;;;;;;;5.77;1.67;;;8.70;99.90;;;;;;5271119;28;20868;-50
2022/12/30 12:02:59;;;;;;;4.80;2.37;;;8.70;99.90;;;;;;5268075;28;20522;-50
2022/12/30 12:05:42;;;;;;;4.37;2.17;;;8.80;99.90;;;;;;5266978;28;20808;-51
2022/12/30 12:08:47;;;;;;;5.70;1.73;;;8.80;99.90;;;;;;5262974;28;23198;-50
2022/12/30 12:11:21;;;;;;;4.30;1.50;;;8.90;99.90;;;;;;5265192;28;21718;-51
2022/12/30 12:14:11;;;;;;;4.30;2.03;;;8.90;99.90;;;;;;5271321;28;20510;-53
2022/12/30 12:16:50;;;;;;;14.63;1.90;;;8.80;99.90;;;;;;5270862;28;20508;-51
2022/12/30 12:19:26;;;;;;;8.33;1.90;;;8.80;99.90;;;;;;5272567;28;20459;-52
2022/12/30 12:22:01;;;;;;;7.87;2.43;;;8.80;99.90;;;;;;5281530;28;20427;-51
2022/12/30 12:24:42;;;;;;;7.60;1.93;;;8.80;99.90;;;;;;5256626;28;21262;-51
2022/12/30 12:27:16;;;;;;;3.53;2.43;;;8.70;99.90;;;;;;5254979;28;20466;-51
2022/12/30 12:29:47;;;;;;;4.30;2.30;;;8.80;99.90;;;;;;5258782;28;20459;-51
2022/12/30 12:32:29;;;;;;;4.67;2.13;;;8.70;99.90;;;;;;5269723;28;21018;-50
2022/12/30 12:35:22;;;;;;;6.10;1.50;;;8.60;99.90;;;;;;5271795;28;20676;-51
2022/12/30 12:38:13;;;;;;;5.83;1.90;;;8.70;99.90;;;;;;5269431;28;20501;-49
2022/12/30 12:40:58;;;;;;;4.70;1.70;;;8.50;99.90;;;;;;5276566;28;20856;-51
2022/12/30 12:43:47;;;;;;;10.97;2.90;;;8.40;99.90;;;;;;5265255;28;20419;-49
2022/12/30 12:46:46;;;;;;;9.70;2.20;;;8.50;99.90;;;;;;5267917;28;20431;-50
2022/12/30 12:49:51;;;;;;;9.83;1.90;;;8.60;99.90;;;;;;5273926;28;20829;-52
2022/12/30 12:52:36;;;;;;;5.80;2.03;;;8.60;99.90;;;;;;5282305;27;20507;-51
2022/12/30 12:55:34;;;;;;;2.07;1.93;;;8.70;99.90;;;;;;5261656;28;20471;-49
2022/12/30 12:58:34;;;;;;;7.87;2.90;;;8.70;99.90;;;;;;5287170;27;20535;-51
2022/12/30 13:01:34;;;;;;;10.13;2.40;;;8.90;99.90;;;;;;5267033;28;20510;-52
2022/12/30 13:04:25;;;;;;;10.67;3.00;;;8.90;99.90;;;;;;5250307;28;20443;-52
2022/12/30 13:07:08;;;;;;;6.30;2.57;;;8.90;99.90;;;;;;5264794;28;20416;-52
2022/12/30 13:10:01;;;;;;;9.03;2.50;;;8.90;99.90;;;;;;5278103;28;20472;-51
2022/12/30 13:12:42;;;;;;;15.43;3.10;;;8.80;99.90;;;;;;5268872;28;20435;-51
2022/12/30 13:15:40;;;;;;;9.80;2.10;;;8.90;99.90;;;;;;5271524;28;20547;-50
2022/12/30 13:18:18;;;;;;;10.33;2.47;;;8.80;99.90;;;;;;5271252;28;20998;-52
2022/12/30 13:20:55;;;;;;;11.20;2.17;;;8.70;99.90;;;;;;5266991;28;20435;-49
2022/12/30 13:23:41;;;;;;;6.67;2.20;;;8.70;99.90;;;;;;5265078;28;20518;-50
2022/12/30 13:26:12;;;;;;;8.87;3.30;;;8.80;99.90;;;;;;5274580;28;20465;-51
2022/12/30 13:28:50;;;;;;;7.43;2.63;;;8.80;99.90;;;;;;5264585;28;20512;-51
2022/12/30 13:31:29;;;;;;;3.27;1.90;;;8.70;99.90;;;;;;5262972;28;20185;-50
2022/12/30 13:34:10;;;;;;;9.00;2.90;;;8.60;99.90;;;;;;5265115;28;20908;-52
2022/12/30 13:37:10;;;;;;;5.53;1.80;;;8.70;99.90;;;;;;5270288;28;20459;-51
2022/12/30 13:40:00;;;;;;;12.67;3.10;;;8.80;99.90;;;;;;5252868;28;20451;-51
2022/12/30 13:43:06;;;;;;;3.70;2.17;;;8.70;99.90;;;;;;5271226;28;20429;-52
2022/12/30 13:45:44;;;;;;;9.63;3.00;;;8.70;99.90;;;;;;5264135;28;20483;-50
2022/12/30 13:48:22;;;;;;;9.13;1.67;;;8.80;99.90;;;;;;5267450;28;20447;-52
2022/12/30 13:51:16;;;;;;;4.43;1.80;;;9.10;99.90;;;;;;5276850;27;20470;-51
2022/12/30 13:53:50;;;;;;;9.53;3.10;;;8.90;99.90;;;;;;5259018;28;20436;-51
2022/12/30 13:56:33;;;;;;;5.90;2.87;;;8.80;99.90;;;;;;5254888;28;20464;-49
2022/12/30 13:59:05;;;;;;;6.43;2.53;;;8.90;99.90;;;;;;5259081;28;20521;-51
2022/12/30 14:01:39;;;;;;;6.50;2.10;;;8.70;99.90;;;;;;5252684;28;20435;-51
2022/12/30 14:04:09;;;;;;;6.70;2.20;;;8.70;99.90;;;;;;5258710;28;20440;-50
2022/12/30 14:06:48;;;;;;;11.73;1.73;;;8.50;99.90;;;;;;5259285;28;20443;-52
2022/12/30 14:09:23;;;;;;;11.97;3.60;;;8.50;99.90;;;;;;5258299;28;20194;-50
2022/12/30 14:12:08;;;;;;;7.07;2.20;;;8.60;99.90;;;;;;5261008;28;20527;-51
2022/12/30 14:14:40;;;;;;;4.47;2.60;;;8.50;99.90;;;;;;5259596;28;20840;-51
2022/12/30 14:17:32;;;;;;;11.13;2.33;;;8.50;99.90;;;;;;5260913;28;21048;-49
2022/12/30 14:20:23;;;;;;;7.07;2.23;;;8.50;99.90;;;;;;5256290;28;20416;-50
2022/12/30 14:22:56;;;;;;;3.83;2.23;;;8.50;99.90;;;;;;5264144;28;20431;-51
2022/12/30 14:25:34;;;;;;;5.20;2.70;;;8.50;99.90;;;;;;5243934;28;20440;-52
2022/12/30 14:28:14;;;;;;;14.30;2.67;;;8.30;99.90;;;;;;5262838;28;20497;-51
2022/12/30 14:30:48;;;;;;;4.77;2.40;;;8.30;99.90;;;;;;5258496;28;20431;-51
2022/12/30 14:33:22;;;;;;;9.37;3.80;;;8.10;99.90;;;;;;5260357;28;20481;-50
2022/12/30 14:36:18;;;;;;;11.33;6.23;;;8.30;99.90;;;;;;5274107;28;20469;-51
2022/12/30 14:38:48;;;;;;;8.77;6.40;;;8.10;99.90;;;;;;5263750;28;20520;-52
2022/12/30 14:41:25;;;;;;;15.13;5.63;;;7.90;99.90;;;;;;5266628;28;20950;-50